createdAt,value
2023-01-12T00:01:56.012Z,84.60
2023-01-12T00:04:22.988Z,84.83
2023-01-12T00:06:49.792Z,84.23
2023-01-12T00:09:16.550Z,83.97
2023-01-12T00:11:43.504Z,83.56
2023-01-12T00:14:10.327Z,83.64
2023-01-12T00:16:43.528Z,84.21
2023-01-12T00:19:18.121Z,84.73
2023-01-12T00:21:50.644Z,84.77
2023-01-12T00:24:18.574Z,84.53
2023-01-12T00:26:48.744Z,84.34
2023-01-12T00:29:16.630Z,84.06
2023-01-12T00:31:43.823Z,84.07
2023-01-12T00:34:11.007Z,83.75
2023-01-12T00:36:38.454Z,83.73
2023-01-12T00:39:05.469Z,83.88
2023-01-12T00:41:50.808Z,83.36
2023-01-12T00:44:36.340Z,82.57
2023-01-12T00:47:03.092Z,82.41
2023-01-12T00:49:29.773Z,82.51
2023-01-12T00:51:56.540Z,82.36
2023-01-12T00:54:23.304Z,82.48
2023-01-12T00:56:49.992Z,82.02
2023-01-12T00:59:16.777Z,81.96
2023-01-12T01:01:43.593Z,81.94
2023-01-12T01:04:10.471Z,81.59
2023-01-12T01:06:38.875Z,82.43
2023-01-12T01:09:06.733Z,81.14
2023-01-12T01:11:34.753Z,81.26
2023-01-12T01:14:02.269Z,82.32
2023-01-12T01:16:29.896Z,82.16
2023-01-12T01:18:57.847Z,82.51
2023-01-12T01:21:25.042Z,83.09
2023-01-12T01:23:51.828Z,82.84
2023-01-12T01:26:21.220Z,81.78
2023-01-12T01:28:48.315Z,80.63
2023-01-12T01:31:18.469Z,80.77
2023-01-12T01:33:45.601Z,80.05
2023-01-12T01:36:12.840Z,81.30
2023-01-12T01:38:40.144Z,80.17
2023-01-12T01:41:07.479Z,79.71
2023-01-12T01:43:57.573Z,81.49
2023-01-12T01:47:04.143Z,81.85
2023-01-12T01:49:37.954Z,81.49
2023-01-12T01:52:09.451Z,81.53
2023-01-12T01:54:40.115Z,81.23
2023-01-12T01:57:07.802Z,81.34
2023-01-12T01:59:36.436Z,81.94
2023-01-12T02:02:03.428Z,81.50
2023-01-12T02:04:30.781Z,82.05
2023-01-12T02:06:57.756Z,81.41
2023-01-12T02:09:28.410Z,81.68
2023-01-12T02:12:14.306Z,82.35
2023-01-12T02:15:04.601Z,82.18
2023-01-12T02:17:53.121Z,82.93
2023-01-12T02:20:41.411Z,82.58
2023-01-12T02:23:35.934Z,82.81
2023-01-12T02:26:14.882Z,82.70
2023-01-12T02:29:00.767Z,82.38
2023-01-12T02:31:36.917Z,82.42
2023-01-12T02:34:26.785Z,82.01
2023-01-12T02:37:20.184Z,81.98
2023-01-12T02:40:07.613Z,82.99
2023-01-12T02:42:41.406Z,82.59
2023-01-12T02:45:26.920Z,81.65
2023-01-12T02:48:12.125Z,82.59
2023-01-12T02:50:59.383Z,82.09
2023-01-12T02:53:43.261Z,82.16
2023-01-12T02:56:11.793Z,82.55
2023-01-12T02:58:42.971Z,83.07
2023-01-12T03:01:10.821Z,83.43
2023-01-12T03:03:39.729Z,83.82
2023-01-12T03:06:07.742Z,83.39
2023-01-12T03:08:37.760Z,83.31
2023-01-12T03:11:12.193Z,82.42
2023-01-12T03:13:43.728Z,82.60
2023-01-12T03:16:11.908Z,82.77
2023-01-12T03:18:44.496Z,83.26
2023-01-12T03:21:27.657Z,83.33
2023-01-12T03:24:02.280Z,83.88
2023-01-12T03:26:30.521Z,84.47
2023-01-12T03:29:33.502Z,83.89
2023-01-12T03:32:00.457Z,84.06
2023-01-12T03:34:27.826Z,84.11
2023-01-12T03:37:07.652Z,84.20
2023-01-12T03:39:55.516Z,83.93
2023-01-12T03:42:26.679Z,83.87
2023-01-12T03:45:27.103Z,84.77
2023-01-12T03:47:57.975Z,84.14
2023-01-12T03:50:28.936Z,83.71
2023-01-12T03:52:56.665Z,83.89
2023-01-12T03:55:24.369Z,83.26
2023-01-12T03:57:52.013Z,83.15
2023-01-12T04:00:20.766Z,83.47
2023-01-12T04:02:47.515Z,83.13
2023-01-12T04:05:14.900Z,83.15
2023-01-12T04:07:41.699Z,83.02
2023-01-12T04:10:08.999Z,82.80
2023-01-12T04:12:35.748Z,82.05
2023-01-12T04:15:02.457Z,81.56
2023-01-12T04:17:29.310Z,81.74
2023-01-12T04:19:56.160Z,81.84
2023-01-12T04:22:41.425Z,81.83
2023-01-12T04:25:09.896Z,80.75
2023-01-12T04:27:36.967Z,81.57
2023-01-12T04:30:04.500Z,81.38
2023-01-12T04:32:31.252Z,81.67
2023-01-12T04:34:58.016Z,81.51
2023-01-12T04:37:24.772Z,81.34
2023-01-12T04:39:51.540Z,81.32
2023-01-12T04:42:36.959Z,81.50
2023-01-12T04:45:03.981Z,82.20
2023-01-12T04:47:30.748Z,81.99
2023-01-12T04:49:57.444Z,82.11
2023-01-12T04:52:24.264Z,82.75
2023-01-12T04:54:51.055Z,82.46
2023-01-12T04:57:17.813Z,82.22
2023-01-12T04:59:44.530Z,82.36
2023-01-12T05:02:11.372Z,82.41
2023-01-12T05:04:38.106Z,82.56
2023-01-12T05:07:04.931Z,82.71
2023-01-12T05:09:49.957Z,83.08
2023-01-12T05:12:16.781Z,83.35
2023-01-12T05:14:43.477Z,83.65
2023-01-12T05:17:10.282Z,84.36
2023-01-12T05:19:36.957Z,83.84
2023-01-12T05:22:03.709Z,83.91
2023-01-12T05:24:30.633Z,84.19
2023-01-12T05:26:57.408Z,85.06
2023-01-12T05:29:24.109Z,85.33
2023-01-12T05:31:50.841Z,84.71
2023-01-12T05:34:19.773Z,84.80
2023-01-12T05:36:47.472Z,84.53
2023-01-12T05:39:14.201Z,83.83
2023-01-12T05:42:00.850Z,84.09
2023-01-12T05:44:27.751Z,83.77
2023-01-12T05:46:54.640Z,82.72
2023-01-12T05:49:21.369Z,82.37
2023-01-12T05:51:48.202Z,82.18
2023-01-12T05:54:15.000Z,82.66
2023-01-12T05:56:42.990Z,82.27
2023-01-12T05:59:10.536Z,81.53
2023-01-12T06:01:37.480Z,82.30
2023-01-12T06:04:04.466Z,81.32
2023-01-12T06:06:31.706Z,81.54
2023-01-12T06:08:59.287Z,81.62
2023-01-12T06:11:44.534Z,81.33
2023-01-12T06:14:11.535Z,81.32
2023-01-12T06:16:40.028Z,81.92
2023-01-12T06:19:07.225Z,81.82
2023-01-12T06:21:34.459Z,81.15
2023-01-12T06:24:01.341Z,81.89
2023-01-12T06:26:28.089Z,81.05
2023-01-12T06:28:54.840Z,81.18
2023-01-12T06:31:21.618Z,83.07
2023-01-12T06:33:48.403Z,82.89
2023-01-12T06:36:15.194Z,82.88
2023-01-12T06:38:43.349Z,83.46
2023-01-12T06:41:30.377Z,83.73
2023-01-12T06:43:57.515Z,84.55
2023-01-12T06:46:25.880Z,81.97
2023-01-12T06:48:55.344Z,82.54
2023-01-12T06:51:22.203Z,81.30
2023-01-12T06:53:48.926Z,79.31
2023-01-12T06:56:15.918Z,79.95
2023-01-12T06:58:43.563Z,80.12
2023-01-12T07:01:10.619Z,80.22
2023-01-12T07:03:37.403Z,80.87
2023-01-12T07:06:04.312Z,80.42
2023-01-12T07:08:32.268Z,79.95
2023-01-12T07:11:07.900Z,80.04
2023-01-12T07:13:34.896Z,80.31
2023-01-12T07:16:02.078Z,80.64
2023-01-12T07:18:29.383Z,80.56
2023-01-12T07:20:56.275Z,80.73
2023-01-12T07:23:24.250Z,81.46
2023-01-12T07:25:51.142Z,81.92
2023-01-12T07:28:21.611Z,81.76
2023-01-12T07:30:48.774Z,81.98
2023-01-12T07:33:18.533Z,81.71
2023-01-12T07:35:45.682Z,81.37
2023-01-12T07:38:13.625Z,80.94
2023-01-12T07:40:41.040Z,80.62
2023-01-12T07:43:09.431Z,81.25
2023-01-12T07:45:36.375Z,81.63
2023-01-12T07:48:03.314Z,81.67
2023-01-12T07:50:30.176Z,81.50
2023-01-12T07:53:01.291Z,81.38
2023-01-12T07:55:28.624Z,81.11
2023-01-12T07:58:01.283Z,81.54
2023-01-12T08:00:28.295Z,81.86
2023-01-12T08:02:56.361Z,82.24
2023-01-12T08:05:23.188Z,81.96
2023-01-12T08:07:50.215Z,81.67
2023-01-12T08:10:17.173Z,81.76
2023-01-12T08:12:44.066Z,81.40
2023-01-12T08:15:11.812Z,81.06
2023-01-12T08:17:49.542Z,80.56
2023-01-12T08:20:19.844Z,80.28
2023-01-12T08:22:49.301Z,80.06
2023-01-12T08:25:19.693Z,79.82
2023-01-12T08:27:54.928Z,79.25
2023-01-12T08:30:41.099Z,78.88
2023-01-12T08:33:07.975Z,79.10
2023-01-12T08:35:35.169Z,78.94
2023-01-12T08:38:01.944Z,79.04
2023-01-12T08:40:48.758Z,78.85
2023-01-12T08:43:35.682Z,79.02
2023-01-12T08:46:07.848Z,78.29
2023-01-12T08:48:38.137Z,77.75
2023-01-12T08:51:06.837Z,77.06
2023-01-12T08:53:34.026Z,77.70
2023-01-12T08:56:00.809Z,77.07
2023-01-12T08:58:27.535Z,76.55
2023-01-12T09:00:54.411Z,76.48
2023-01-12T09:03:21.335Z,77.48
2023-01-12T09:05:48.756Z,77.40
2023-01-12T09:08:15.600Z,77.49
2023-01-12T09:10:42.364Z,77.84
2023-01-12T09:13:11.811Z,77.16
2023-01-12T09:15:38.641Z,77.18
2023-01-12T09:18:06.573Z,77.21
2023-01-12T09:20:34.267Z,76.55
2023-01-12T09:23:03.964Z,77.02
2023-01-12T09:25:30.650Z,76.84
2023-01-12T09:27:58.012Z,78.24
2023-01-12T09:30:24.779Z,77.21
2023-01-12T09:32:51.493Z,76.79
2023-01-12T09:35:19.894Z,75.90
2023-01-12T09:37:46.755Z,75.54
2023-01-12T09:40:15.195Z,74.88
2023-01-12T09:43:06.664Z,74.86
2023-01-12T09:45:51.910Z,74.00
2023-01-12T09:48:21.240Z,73.99
2023-01-12T09:50:54.471Z,72.24
2023-01-12T09:53:41.475Z,72.00
2023-01-12T09:56:08.310Z,70.90
2023-01-12T09:59:12.399Z,70.25
2023-01-12T10:01:39.226Z,69.50
2023-01-12T10:04:06.783Z,69.51
2023-01-12T10:06:35.021Z,69.31
2023-01-12T10:09:07.125Z,69.08
2023-01-12T10:12:01.044Z,68.66
2023-01-12T10:14:41.857Z,69.84
2023-01-12T10:17:14.380Z,69.95
2023-01-12T10:20:08.888Z,69.57
2023-01-12T10:22:44.816Z,69.07
2023-01-12T10:25:23.935Z,69.03
2023-01-12T10:27:53.072Z,68.83
2023-01-12T10:30:31.892Z,69.48
2023-01-12T10:33:16.292Z,69.22
2023-01-12T10:35:54.347Z,69.77
2023-01-12T10:38:28.552Z,69.38
2023-01-12T10:41:28.332Z,69.37
2023-01-12T10:43:55.097Z,69.75
2023-01-12T10:46:24.122Z,69.91
2023-01-12T10:48:54.936Z,69.70
2023-01-12T10:51:35.722Z,69.14
2023-01-12T10:54:18.980Z,69.33
2023-01-12T10:57:16.709Z,68.59
2023-01-12T10:59:50.661Z,68.89
2023-01-12T11:02:17.753Z,68.56
2023-01-12T11:04:51.687Z,68.80
2023-01-12T11:07:31.203Z,68.72
2023-01-12T11:10:28.508Z,68.99
2023-01-12T11:12:58.945Z,66.82
2023-01-12T11:15:27.230Z,65.45
2023-01-12T11:18:21.488Z,62.92
2023-01-12T11:20:51.838Z,62.22
2023-01-12T11:23:39.406Z,62.50
2023-01-12T11:26:17.880Z,63.26
2023-01-12T11:28:50.020Z,63.45
2023-01-12T11:31:21.231Z,63.86
2023-01-12T11:34:04.017Z,64.61
2023-01-12T11:36:34.907Z,64.96
2023-01-12T11:39:27.785Z,65.60
2023-01-12T11:42:20.233Z,65.72
2023-01-12T11:44:52.129Z,65.86
2023-01-12T11:47:24.436Z,66.34
2023-01-12T11:50:24.741Z,66.74
2023-01-12T11:52:52.082Z,67.05
2023-01-12T11:55:48.871Z,66.79
2023-01-12T11:58:22.488Z,66.19
2023-01-12T12:01:11.510Z,66.18
2023-01-12T12:03:40.048Z,65.59
2023-01-12T12:06:10.895Z,65.73
2023-01-12T12:08:49.773Z,65.43
2023-01-12T12:11:57.040Z,67.29
2023-01-12T12:14:48.338Z,64.66
2023-01-12T12:17:15.024Z,63.98
2023-01-12T12:19:41.887Z,63.60
2023-01-12T12:22:19.452Z,62.69
2023-01-12T12:25:01.369Z,63.78
2023-01-12T12:27:52.260Z,60.25
2023-01-12T12:30:41.091Z,56.71
2023-01-12T12:33:22.406Z,54.31
2023-01-12T12:36:04.513Z,55.58
2023-01-12T12:39:01.361Z,56.74
2023-01-12T12:41:55.958Z,58.44
2023-01-12T12:44:48.059Z,57.72
2023-01-12T12:47:42.776Z,58.37
2023-01-12T12:50:19.735Z,59.12
2023-01-12T12:52:51.585Z,59.95
2023-01-12T12:55:18.539Z,58.78
2023-01-12T12:58:01.686Z,58.44
2023-01-12T13:00:42.531Z,58.25
2023-01-12T13:03:10.287Z,60.13
2023-01-12T13:05:41.363Z,60.04
2023-01-12T13:08:25.810Z,60.24
2023-01-12T13:10:57.752Z,59.88
2023-01-12T13:13:28.382Z,59.61
2023-01-12T13:16:15.516Z,58.97
2023-01-12T13:19:02.251Z,59.63
2023-01-12T13:21:58.509Z,60.00
2023-01-12T13:24:39.626Z,59.51
2023-01-12T13:27:43.682Z,58.72
2023-01-12T13:30:34.897Z,58.40
2023-01-12T13:33:27.398Z,58.04
2023-01-12T13:35:55.244Z,56.68
2023-01-12T13:38:38.942Z,54.65
2023-01-12T13:41:37.675Z,52.72
2023-01-12T13:44:06.531Z,51.61
2023-01-12T13:46:55.729Z,50.57
2023-01-12T13:49:26.288Z,50.18
2023-01-12T13:52:22.135Z,50.65
2023-01-12T13:54:50.526Z,52.75
2023-01-12T13:57:22.529Z,55.12
2023-01-12T13:59:59.432Z,57.27
2023-01-12T14:02:32.237Z,59.36
2023-01-12T14:05:13.894Z,60.54
2023-01-12T14:07:52.945Z,62.11
2023-01-12T14:10:28.477Z,63.00
2023-01-12T14:13:25.845Z,64.16
2023-01-12T14:16:19.284Z,65.12
2023-01-12T14:18:51.138Z,66.11
2023-01-12T14:21:28.974Z,66.74
2023-01-12T14:24:21.151Z,68.20
2023-01-12T14:26:47.901Z,68.23
2023-01-12T14:29:14.814Z,68.81
2023-01-12T14:31:48.337Z,69.57
2023-01-12T14:34:28.073Z,69.68
2023-01-12T14:36:55.189Z,70.01
2023-01-12T14:39:25.019Z,70.94
2023-01-12T14:42:12.601Z,71.42
2023-01-12T14:45:09.050Z,71.83
2023-01-12T14:47:36.318Z,72.31
2023-01-12T14:50:12.304Z,73.09
2023-01-12T14:52:40.898Z,73.50
2023-01-12T14:55:38.948Z,74.35
2023-01-12T14:58:06.463Z,74.56
2023-01-12T15:00:35.637Z,74.75
2023-01-12T15:03:07.676Z,75.47
2023-01-12T15:05:36.787Z,75.92
2023-01-12T15:08:22.123Z,76.16
2023-01-12T15:11:06.580Z,76.58
2023-01-12T15:13:35.044Z,76.94
2023-01-12T15:16:21.611Z,77.20
2023-01-12T15:19:07.132Z,78.10
2023-01-12T15:21:53.513Z,78.14
2023-01-12T15:24:49.648Z,78.87
2023-01-12T15:27:19.204Z,79.32
2023-01-12T15:29:46.242Z,79.69
2023-01-12T15:32:21.896Z,79.97
2023-01-12T15:34:48.985Z,79.88
2023-01-12T15:37:18.345Z,79.91
2023-01-12T15:39:45.839Z,81.17
2023-01-12T15:42:21.949Z,81.19
2023-01-12T15:44:50.779Z,80.62
2023-01-12T15:47:18.827Z,81.28
2023-01-12T15:49:48.701Z,81.99
2023-01-12T15:52:18.451Z,82.02
2023-01-12T15:54:45.278Z,81.63
2023-01-12T15:57:13.664Z,82.89
2023-01-12T15:59:40.706Z,82.87
2023-01-12T16:02:29.973Z,82.77
2023-01-12T16:04:56.713Z,83.09
2023-01-12T16:07:23.469Z,82.99
2023-01-12T16:09:50.735Z,82.99
2023-01-12T16:12:18.207Z,83.22
2023-01-12T16:14:45.079Z,83.48
2023-01-12T16:17:11.833Z,83.81
2023-01-12T16:19:41.619Z,83.83
2023-01-12T16:22:28.640Z,84.07
2023-01-12T16:24:56.644Z,83.46
2023-01-12T16:27:26.782Z,83.19
2023-01-12T16:29:54.062Z,83.97
2023-01-12T16:32:25.776Z,84.02
2023-01-12T16:34:53.173Z,84.21
2023-01-12T16:37:23.014Z,85.05
2023-01-12T16:39:50.008Z,84.31
2023-01-12T16:42:16.806Z,84.65
2023-01-12T16:44:43.538Z,85.03
2023-01-12T16:47:12.913Z,85.63
2023-01-12T16:49:39.980Z,86.21
2023-01-12T16:52:07.966Z,87.05
2023-01-12T16:54:38.579Z,86.16
2023-01-12T16:57:05.387Z,85.38
2023-01-12T16:59:32.188Z,85.05
2023-01-12T17:01:59.149Z,85.36
2023-01-12T17:04:26.581Z,84.94
2023-01-12T17:06:53.506Z,84.80
2023-01-12T17:09:20.881Z,85.23
2023-01-12T17:11:49.777Z,85.89
2023-01-12T17:14:26.958Z,85.05
2023-01-12T17:16:58.857Z,84.88
2023-01-12T17:19:27.479Z,84.81
2023-01-12T17:21:55.077Z,84.63
2023-01-12T17:24:22.344Z,84.49
2023-01-12T17:26:51.364Z,84.57
2023-01-12T17:29:18.869Z,84.24
2023-01-12T17:31:45.768Z,84.62
2023-01-12T17:34:13.626Z,84.48
2023-01-12T17:36:40.767Z,85.07
2023-01-12T17:39:08.280Z,84.64
2023-01-12T17:41:54.089Z,84.71
2023-01-12T17:44:21.399Z,84.05
2023-01-12T17:46:48.336Z,83.82
2023-01-12T17:49:15.491Z,84.18
2023-01-12T17:51:42.319Z,84.22
2023-01-12T17:54:11.558Z,84.23
2023-01-12T17:56:38.408Z,83.60
2023-01-12T17:59:06.006Z,84.23
2023-01-12T18:01:35.176Z,84.03
2023-01-12T18:04:02.546Z,84.37
2023-01-12T18:06:29.440Z,85.03
2023-01-12T18:08:57.101Z,84.65
2023-01-12T18:11:23.936Z,84.49
2023-01-12T18:13:50.807Z,84.77
2023-01-12T18:16:17.625Z,84.50
2023-01-12T18:18:44.935Z,84.54
2023-01-12T18:21:14.704Z,84.64
2023-01-12T18:23:43.442Z,84.51
2023-01-12T18:26:12.966Z,84.70
2023-01-12T18:28:39.898Z,85.06
2023-01-12T18:31:09.676Z,85.07
2023-01-12T18:33:37.189Z,85.25
2023-01-12T18:36:10.826Z,85.62
2023-01-12T18:38:41.540Z,86.17
2023-01-12T18:41:27.167Z,86.64
2023-01-12T18:43:54.357Z,86.25
2023-01-12T18:46:21.369Z,86.69
2023-01-12T18:48:48.371Z,86.60
2023-01-12T18:51:33.948Z,87.52
2023-01-12T18:54:01.221Z,86.77
2023-01-12T18:56:28.261Z,86.35
2023-01-12T18:58:55.006Z,86.49
2023-01-12T19:01:26.693Z,86.04
2023-01-12T19:03:53.561Z,86.12
2023-01-12T19:06:44.295Z,86.76
2023-01-12T19:09:32.608Z,86.51
2023-01-12T19:11:59.557Z,87.12
2023-01-12T19:14:44.692Z,86.10
2023-01-12T19:17:27.135Z,85.16
2023-01-12T19:19:54.538Z,85.53
2023-01-12T19:22:39.957Z,85.43
2023-01-12T19:25:25.321Z,86.17
2023-01-12T19:28:11.309Z,86.18
2023-01-12T19:30:38.725Z,85.38
2023-01-12T19:33:08.746Z,85.49
2023-01-12T19:35:37.102Z,85.60
2023-01-12T19:38:04.045Z,85.21
2023-01-12T19:40:43.890Z,85.02
2023-01-12T19:43:20.493Z,85.82
2023-01-12T19:45:51.974Z,85.50
2023-01-12T19:48:20.332Z,85.72
2023-01-12T19:50:47.179Z,86.31
2023-01-12T19:53:18.506Z,86.46
2023-01-12T19:55:46.354Z,85.92
2023-01-12T19:58:14.336Z,86.59
2023-01-12T20:00:46.260Z,87.25
2023-01-12T20:03:18.371Z,86.49
2023-01-12T20:05:50.937Z,86.86
2023-01-12T20:08:21.723Z,87.01
2023-01-12T20:10:56.486Z,86.93
2023-01-12T20:13:23.873Z,87.27
2023-01-12T20:15:50.800Z,87.45
2023-01-12T20:18:18.693Z,87.32
2023-01-12T20:20:46.388Z,87.05
2023-01-12T20:23:19.940Z,87.18
2023-01-12T20:25:46.807Z,86.76
2023-01-12T20:28:13.863Z,86.45
2023-01-12T20:30:44.441Z,86.21
2023-01-12T20:33:11.876Z,86.38
2023-01-12T20:35:43.873Z,86.30
2023-01-12T20:38:15.541Z,86.19
2023-01-12T20:40:43.912Z,86.32
2023-01-12T20:43:10.733Z,86.37
2023-01-12T20:45:37.475Z,86.44
2023-01-12T20:48:04.578Z,85.88
2023-01-12T20:50:31.612Z,86.16
2023-01-12T20:52:58.453Z,86.67
2023-01-12T20:55:25.457Z,86.44
2023-01-12T20:57:52.793Z,86.48
2023-01-12T21:00:19.904Z,86.51
2023-01-12T21:02:46.634Z,86.98
2023-01-12T21:05:13.411Z,86.61
2023-01-12T21:07:40.172Z,86.73
2023-01-12T21:10:09.065Z,86.77
2023-01-12T21:12:35.901Z,86.88
2023-01-12T21:15:03.966Z,87.06
2023-01-12T21:17:31.655Z,86.79
2023-01-12T21:19:58.454Z,86.97
2023-01-12T21:22:25.340Z,87.21
2023-01-12T21:24:52.335Z,86.99
2023-01-12T21:27:19.070Z,87.11
2023-01-12T21:29:46.055Z,86.83
2023-01-12T21:32:13.015Z,86.01
2023-01-12T21:34:39.799Z,86.25
2023-01-12T21:37:07.642Z,86.99
2023-01-12T21:39:34.375Z,86.65
2023-01-12T21:42:19.753Z,86.41
2023-01-12T21:44:46.546Z,86.33
2023-01-12T21:47:13.294Z,86.15
2023-01-12T21:49:39.967Z,86.55
2023-01-12T21:52:06.769Z,86.59
2023-01-12T21:54:33.449Z,85.84
2023-01-12T21:57:00.258Z,86.48
2023-01-12T21:59:27.044Z,86.57
2023-01-12T22:01:53.961Z,86.79
2023-01-12T22:04:20.900Z,86.70
2023-01-12T22:06:50.598Z,85.95
2023-01-12T22:09:17.551Z,85.97
2023-01-12T22:11:44.357Z,86.26
2023-01-12T22:14:11.084Z,86.21
2023-01-12T22:16:37.821Z,86.38
2023-01-12T22:19:04.577Z,85.61
2023-01-12T22:21:31.302Z,85.58
2023-01-12T22:23:58.022Z,86.18
2023-01-12T22:26:25.917Z,86.31
2023-01-12T22:28:52.608Z,86.19
2023-01-12T22:31:21.790Z,85.80
2023-01-12T22:33:57.535Z,86.68
2023-01-12T22:36:24.665Z,86.06
2023-01-12T22:38:51.532Z,86.73
2023-01-12T22:41:21.723Z,85.58
2023-01-12T22:43:49.375Z,84.68
2023-01-12T22:46:17.991Z,84.60
2023-01-12T22:48:51.159Z,84.84
2023-01-12T22:51:20.241Z,84.50
2023-01-12T22:53:47.629Z,84.38
2023-01-12T22:56:14.758Z,84.14
2023-01-12T22:58:49.088Z,84.63
2023-01-12T23:01:16.806Z,84.11
2023-01-12T23:03:44.104Z,84.73
2023-01-12T23:06:12.458Z,85.27
2023-01-12T23:08:39.558Z,85.63
2023-01-12T23:11:15.367Z,85.18
2023-01-12T23:13:43.190Z,85.25
2023-01-12T23:16:11.264Z,85.22
2023-01-12T23:18:39.962Z,85.32
2023-01-12T23:21:16.613Z,85.11
2023-01-12T23:23:51.886Z,85.20
2023-01-12T23:26:24.307Z,85.54
2023-01-12T23:28:56.450Z,85.78
2023-01-12T23:31:26.204Z,85.10
2023-01-12T23:33:53.357Z,86.01
2023-01-12T23:36:22.218Z,86.77
2023-01-12T23:38:57.621Z,86.86
2023-01-12T23:41:26.639Z,86.75
2023-01-12T23:43:56.220Z,86.45
2023-01-12T23:46:23.900Z,86.16
2023-01-12T23:48:51.834Z,86.29
2023-01-12T23:51:18.796Z,86.08
2023-01-12T23:53:45.597Z,85.77
2023-01-12T23:56:14.791Z,86.17
2023-01-12T23:58:42.534Z,85.72
